Howard Beach, New York
Current Conditions -  °F | °C
As of 8:51 PM on Sunday 23 Nov 2014 (Local Time) from KJFK Reporting Station
Overcast Overcast  
Wind Chill: 52°   Ceiling: 24000
Heat Index: 52°   Visibility: 10mi
Dew Point: 47°   Wind: 9mph
Humidity: 83%   Direction: 180°S
Pressure: 30.11"   Gusts: NA
Location:  40.66°N, 73.84°W
Report Text: KJFK 240151Z 18008KT 10SM SCT140 OVC240 11/08 A3011 RMK AO2 SLP195 T01110083 $
Loading
Personal Weather Stations






























Interactive Weather Map New forecast layout! Learn more

10-Day Weather Forecast

Advertisements
Track Severe Weather on mobile